Latest Weather Observations for Tennant Creek

IDD60801

Issued at 11:01 pm CST Thursday 29 September 2016 (issued every 30 minutes, with the page automatically refreshed every 10 minutes)

About weather observations | Map of weather stations | Latest weather observations for NT | Other Formats
Station Details ID: 015135 Name: TENNANT CREEK AIRPORT Lat: -19.64 Lon: 134.18 Height: 375.7 m
Data from the previous 72 hours. | See also: Recent months at Tennant Creek
Date/Time
CST
Temp
°C
App
Temp
°C
Dew
Point
°C
Rel
Hum
%
Delta-T
°C
Wind Press
QNH
hPa
Press
MSL
hPa
Rain since
9am
mm
Dir  Spd
km/h
Gust
km/h
Spd
kts
Gust
kts
29/11:00pm 22.1 16.7 -8.4 12 11.9 SSE 13 22 7 12 1012.9 - 0.0
29/10:30pm 22.5 17.1 -8.4 12 12.1 SE 13 17 7 9 1012.9 - 0.0
29/10:00pm 22.7 17.4 -7.8 12 12.1 SE 13 20 7 11 1012.8 - 0.0
29/09:30pm 23.8 18.1 -7.9 11 12.7 SSE 15 22 8 12 1012.9 - 0.0
29/09:00pm 23.8 18.6 -6.7 12 12.5 SSE 13 20 7 11 1012.5 1010.5 0.0
29/08:30pm 25.3 20.2 -9.2 9 13.7 S 11 15 6 8 1011.8 - 0.0
29/08:00pm 25.6 20.4 -6.3 11 13.4 SSE 13 20 7 11 1011.2 - 0.0
29/07:30pm 26.8 21.9 -7.1 10 14.2 SSE 11 15 6 8 1010.7 - 0.0
29/07:00pm 27.8 22.7 -8.8 8 15.0 S 11 15 6 8 1010.3 - 0.0
29/06:30pm 29.0 23.9 -9.0 8 15.7 S 11 15 6 8 1009.9 - 0.0
29/06:00pm 30.3 25.2 -9.5 7 16.5 S 11 20 6 11 1009.6 1007.6 0.0
29/05:30pm 31.1 25.1 -10.7 6 17.1 SW 15 24 8 13 1009.6 - 0.0
29/05:00pm 31.7 26.0 -13.0 5 17.7 SSW 13 28 7 15 1009.2 - 0.0
29/04:30pm 31.5 25.4 -7.5 7 16.9 SSW 17 28 9 15 1009.4 - 0.0
29/04:00pm 31.9 25.7 -8.7 7 17.3 SW 17 22 9 12 1009.4 - 0.0
29/03:30pm 31.2 24.6 -6.6 8 16.6 S 20 26 11 14 1009.6 - 0.0
29/03:00pm 31.9 25.4 -6.0 8 16.9 SSW 20 28 11 15 1009.9 1007.9 0.0
29/02:30pm 31.6 26.1 -5.3 9 16.6 SW 15 26 8 14 1010.3 - 0.0
29/02:00pm 31.5 25.0 -5.6 9 16.6 S 20 28 11 15 1010.9 - 0.0
29/01:30pm 31.3 26.4 -3.0 11 16.0 SSW 13 28 7 15 1011.3 - 0.0
29/01:00pm 31.0 26.0 -3.9 10 16.0 S 13 26 7 14 1011.7 - 0.0
29/12:30pm 30.2 24.8 -4.2 10 15.6 SSW 15 28 8 15 1012.3 - 0.0
29/12:00pm 30.2 24.2 -3.2 11 15.4 S 19 28 10 15 1012.5 1010.5 0.0
29/11:30am 29.7 24.8 -0.8 14 14.6 SSE 15 24 8 13 1013.0 - 0.0
29/11:00am 28.4 24.0 2.9 19 12.9 SE 15 24 8 13 1013.4 - 0.0
29/10:30am 27.9 22.7 3.6 21 12.4 SSE 20 30 11 16 1013.6 - 0.0
29/10:00am 27.4 23.4 6.7 27 11.1 S 17 24 9 13 1013.8 - 0.0
29/09:30am 26.7 22.1 5.8 26 11.0 S 19 28 10 15 1013.6 - 0.0
29/09:00am 26.4 22.8 9.9 35 9.3 SSE 19 30 10 16 1013.5 1011.5 0.0
29/08:30am 24.5 22.6 12.9 48 6.8 S 15 22 8 12 1013.3 - 0.0
29/08:00am 24.3 24.3 15.1 56 5.6 S 9 15 5 8 1013.0 - 0.0
29/07:30am 23.9 24.6 16.1 61 4.8 SSW 7 9 4 5 1012.5 - 0.0
29/07:00am 22.2 24.8 17.4 74 3.0 CALM 0 4 0 2 1012.0 - 0.0
29/06:30am 21.5 22.8 17.5 78 2.5 ENE 7 9 4 5 1011.3 - 0.0
29/06:00am 21.3 22.2 16.6 74 2.9 ENE 7 11 4 6 1010.9 1008.9 0.0
29/05:30am 21.5 22.4 16.1 71 3.3 ENE 6 9 3 5 1010.5 - 0.0
29/05:00am 22.0 22.7 16.1 69 3.6 E 7 11 4 6 1010.4 - 0.0
29/04:30am 22.3 22.9 15.9 67 3.9 E 7 11 4 6 1010.1 - 0.0
29/04:00am 22.6 23.2 15.9 66 4.1 ENE 7 9 4 5 1010.0 - 0.0
29/03:30am 22.7 23.5 15.9 65 4.2 ENE 6 9 3 5 1010.0 - 0.0
29/03:00am 22.8 23.3 15.6 64 4.4 E 7 11 4 6 1010.1 1008.1 0.0
29/02:30am 23.2 23.8 15.3 61 4.8 ENE 6 9 3 5 1010.1 - 0.0
29/02:00am 23.8 23.7 14.9 57 5.4 E 9 13 5 7 1010.3 - 0.0
29/01:30am 24.2 23.6 14.6 55 5.8 E 11 15 6 8 1010.5 - 0.0
29/01:00am 23.6 23.5 15.0 58 5.2 E 9 13 5 7 1010.7 - 0.0
29/12:30am 24.1 23.6 14.9 56 5.6 SE 11 13 6 7 1010.7 - 0.0
29/12:00am 24.8 24.6 14.6 53 6.2 S 9 11 5 6 1010.8 1008.8 0.0
 
Date/Time
CST
Temp
°C
App
Temp
°C
Dew
Point
°C
Rel
Hum
%
Delta-T
°C
Wind Press
QNH
hPa
Press
MSL
hPa
Rain since
9am
mm
Dir  Spd
km/h
Gust
km/h
Spd
kts
Gust
kts
28/11:30pm 25.0 24.8 14.8 53 6.2 S 9 13 5 7 1010.9 - 0.0
28/11:00pm 25.3 24.8 14.8 52 6.4 S 11 15 6 8 1010.9 - 0.0
28/10:30pm 25.7 25.1 14.7 50 6.7 S 11 17 6 9 1010.9 - 0.0
28/10:00pm 26.2 25.6 14.7 49 7.0 S 11 17 6 9 1010.9 - 0.0
28/09:30pm 26.8 25.8 14.5 46 7.5 S 13 17 7 9 1010.9 - 0.0
28/09:00pm 27.4 26.5 14.9 46 7.7 S 13 17 7 9 1010.7 1008.7 0.0
28/08:30pm 28.3 25.8 14.2 42 8.6 S 20 32 11 17 1010.5 - 0.0
28/08:00pm 29.1 26.9 14.5 41 9.0 S 19 28 10 15 1009.8 - 0.0
28/07:30pm 30.0 27.7 14.2 38 9.7 SSW 19 26 10 14 1009.1 - 0.0
28/07:00pm 30.7 29.2 14.3 36 10.1 SSW 15 20 8 11 1008.5 - 0.0
28/06:30pm 31.7 30.0 13.6 33 11.1 SW 15 24 8 13 1008.2 - 0.0
28/06:00pm 32.3 29.5 13.3 31 11.6 SW 20 28 11 15 1007.9 1005.9 0.0
28/05:30pm 32.8 29.0 12.5 29 12.3 SW 24 33 13 18 1007.7 - 0.0
28/05:00pm 33.3 29.2 12.6 28 12.6 WSW 26 41 14 22 1007.3 - 0.0
28/04:30pm 33.9 30.3 13.0 28 12.8 WSW 24 39 13 21 1007.1 - 0.0
28/04:00pm 34.8 30.5 13.2 27 13.3 WSW 28 43 15 23 1006.9 - 0.0
28/03:30pm 35.4 31.8 13.2 26 13.7 WSW 24 39 13 21 1006.9 - 0.0
28/03:02pm 35.4 31.2 13.5 26 13.6 SW 28 46 15 25 1007.1 - 0.0
28/03:00pm 34.8 31.0 13.7 28 13.1 WSW 26 33 14 18 1007.1 1005.1 0.0
28/02:30pm 36.3 31.2 13.2 25 14.3 W 32 50 17 27 1007.5 - 0.0
28/02:17pm 36.3 31.8 12.5 24 14.6 W 28 46 15 25 1007.6 - 0.0
28/02:00pm 35.6 30.5 13.1 25 13.9 W 32 46 17 25 1007.9 - 0.0
28/01:30pm 34.6 30.2 12.9 27 13.3 WNW 28 46 15 25 1008.3 - 0.0
28/01:28pm 34.2 29.7 12.5 27 13.2 WNW 28 46 15 25 1008.3 - 0.0
28/01:00pm 34.6 31.6 13.8 28 12.9 W 22 32 12 17 1008.7 - 0.0
28/12:48pm 35.3 30.5 12.8 25 13.8 NW 30 48 16 26 1009.0 - 0.0
28/12:30pm 34.7 30.5 13.5 28 13.1 WNW 28 43 15 23 1009.5 - 0.0
28/12:15pm 34.5 30.3 13.5 28 13.0 NW 28 46 15 25 1009.7 - 0.0
28/12:00pm 33.6 30.0 13.0 28 12.6 NW 24 32 13 17 1010.1 1008.1 0.0
28/11:30am 32.2 28.6 12.9 31 11.7 N 24 35 13 19 1010.7 - 0.0
28/11:00am 30.5 26.7 12.5 33 10.8 N 24 39 13 21 1011.2 - 0.0
28/10:30am 29.6 26.4 11.8 33 10.5 N 20 30 11 16 1011.6 - 0.0
28/10:00am 27.4 25.1 13.0 41 8.6 N 17 22 9 12 1012.0 - 0.0
28/09:30am 25.4 21.5 13.3 47 7.2 NE 26 39 14 21 1011.8 - 0.0
28/09:00am 23.3 20.1 13.1 52 6.0 NE 22 32 12 17 1012.0 1010.1 1.4
28/08:30am 20.9 20.0 15.8 72 3.1 ENE 15 22 8 12 1012.2 - 1.4
28/08:00am 20.4 20.4 16.3 77 2.5 E 11 15 6 8 1012.3 - 1.4
28/07:30am 20.8 20.7 15.0 69 3.5 E 9 13 5 7 1012.0 - 1.4
28/07:00am 20.3 20.6 16.0 76 2.6 ENE 9 11 5 6 1011.5 - 1.2
28/06:30am 20.1 20.4 16.0 77 2.5 E 9 11 5 6 1011.2 - 1.2
28/06:00am 19.9 21.1 15.8 77 2.5 S 4 9 2 5 1011.5 1009.6 1.2
28/05:30am 19.8 19.1 15.3 75 2.7 NNE 13 17 7 9 1011.4 - 1.2
28/05:00am 21.5 19.1 13.7 61 4.6 NE 19 26 10 14 1010.4 - 0.6
28/04:30am 21.1 20.0 14.4 65 4.0 NE 13 17 7 9 1010.5 - 0.6
28/04:00am 20.6 18.5 14.7 69 3.5 NE 19 26 10 14 1010.5 - 0.6
28/03:30am 22.6 20.5 12.4 52 5.9 NE 15 26 8 14 1011.0 - 0.0
28/03:00am 22.3 19.0 12.7 54 5.6 NE 22 32 12 17 1010.5 1008.5 0.0
28/02:30am 22.1 18.9 13.0 56 5.3 NE 22 32 12 17 1011.0 - 0.0
28/02:00am 21.6 20.0 13.8 61 4.6 ENE 15 20 8 11 1011.1 - 0.0
28/01:30am 21.5 20.2 13.7 61 4.6 E 13 17 7 9 1011.6 - 0.0
28/01:00am 21.2 19.2 13.9 63 4.3 ENE 17 22 9 12 1011.7 - 0.0
28/12:30am 21.1 17.7 13.6 62 4.4 ENE 24 32 13 17 1011.8 - 0.0
28/12:00am 22.2 17.6 11.0 49 6.3 E 26 39 14 21 1011.5 1009.6 0.0
 
Date/Time
CST
Temp
°C
App
Temp
°C
Dew
Point
°C
Rel
Hum
%
Delta-T
°C
Wind Press
QNH
hPa
Press
MSL
hPa
Rain since
9am
mm
Dir  Spd
km/h
Gust
km/h
Spd
kts
Gust
kts
27/11:30pm 22.3 17.0 10.0 45 6.8 E 28 35 15 19 1012.5 - 0.0
27/11:00pm 22.6 18.5 10.0 44 7.0 ENE 22 28 12 15 1013.6 - 0.0
27/10:30pm 23.3 17.8 7.5 36 8.4 E 26 35 14 19 1013.5 - 0.0
27/10:00pm 23.5 18.4 6.2 32 9.0 E 22 32 12 17 1013.3 - 0.0
27/09:30pm 23.5 19.1 4.5 29 9.6 E 17 24 9 13 1013.5 - 0.0
27/09:00pm 23.5 18.5 4.5 29 9.6 E 20 28 11 15 1013.4 1011.4 0.0
27/08:30pm 23.6 18.5 4.3 28 9.7 E 20 28 11 15 1013.2 - 0.0
27/08:00pm 24.0 18.0 3.5 26 10.2 E 24 32 13 17 1012.8 - 0.0
27/07:30pm 24.1 18.6 4.0 27 10.1 E 22 30 12 16 1012.8 - 0.0
27/07:00pm 24.3 18.4 4.0 26 10.2 E 24 33 13 18 1012.6 - 0.0
27/06:30pm 25.1 18.4 3.9 25 10.7 E 28 41 15 22 1012.4 - 0.0
27/06:00pm 25.9 19.1 3.1 23 11.4 E 28 39 15 21 1012.2 1010.2 0.0
27/05:30pm 27.4 20.4 1.9 19 12.6 E 28 41 15 22 1011.7 - 0.0
27/05:00pm 28.2 20.9 2.5 19 12.9 ESE 30 39 16 21 1011.4 - 0.0
27/04:30pm 28.6 21.0 2.7 19 13.1 ESE 32 46 17 25 1011.4 - 0.0
27/04:00pm 28.3 21.7 4.1 21 12.5 ESE 28 39 15 21 1011.6 - 0.0
27/03:30pm 28.1 23.1 6.5 25 11.6 ESE 22 35 12 19 1012.0 - 0.0
27/03:00pm 27.0 21.7 6.9 28 10.8 ESE 24 33 13 18 1012.5 1010.5 0.0
27/02:30pm 26.8 21.8 6.6 27 10.8 ESE 22 32 12 17 1012.9 - 0.0
27/02:00pm 26.0 21.0 6.4 28 10.4 E 22 32 12 17 1013.3 - 0.0
27/01:30pm 26.5 19.4 5.5 26 11.0 E 32 41 17 22 1013.5 - 0.0
27/01:00pm 25.4 19.0 5.3 27 10.4 E 28 39 15 21 1013.9 - 0.0
27/12:30pm 25.5 19.5 5.2 27 10.5 E 26 35 14 19 1014.6 - 0.0
27/12:00pm 25.3 19.6 5.1 27 10.4 E 24 32 13 17 1015.2 1013.2 0.0
27/11:30am 25.7 18.9 5.2 26 10.6 E 30 41 16 22 1015.7 - 0.0
27/11:00am 25.3 18.8 4.8 26 10.5 E 28 39 15 21 1016.1 - 0.0
27/10:30am 24.7 19.0 5.0 28 10.1 ESE 24 35 13 19 1016.4 - 0.0
27/10:00am 24.1 18.1 5.4 30 9.6 E 26 35 14 19 1016.2 - 0.0
27/09:30am 23.5 17.9 5.6 31 9.2 ESE 24 39 13 21 1016.3 - 0.0
27/09:00am 23.4 17.9 6.0 32 9.0 ESE 24 39 13 21 1016.0 1014.0 1.2
27/08:30am 22.7 16.5 6.3 34 8.5 ESE 28 39 15 21 1015.9 - 1.2
27/08:00am 22.3 16.6 6.8 36 8.1 E 26 41 14 22 1015.8 - 1.2
27/07:30am 21.9 16.4 7.5 39 7.6 E 26 33 14 18 1015.4 - 1.2
27/07:00am 21.7 15.8 7.7 40 7.4 E 28 33 15 18 1014.6 - 1.2
27/06:30am 21.6 16.3 8.6 43 7.0 E 26 35 14 19 1014.4 - 1.2
27/06:00am 21.7 17.0 9.2 44 6.8 E 24 33 13 18 1013.9 1012.0 1.2
27/05:30am 21.5 17.8 11.6 53 5.6 E 22 30 12 16 1013.5 - 1.2
27/05:11am 21.6 16.9 12.0 54 5.5 E 28 46 15 25 1013.2 - 1.2
27/05:00am 21.4 18.4 13.8 62 4.5 E 22 33 12 18 1013.4 - 1.2
27/04:43am 21.5 18.6 15.2 67 3.8 ESE 24 30 13 16 1013.2 - 1.2
27/04:30am 22.5 21.0 16.7 69 3.6 ESE 20 28 11 15 1013.1 - 1.2
27/04:25am 22.8 21.2 16.5 67 3.9 ESE 20 32 11 17 1012.9 - 1.0
27/04:00am 23.4 20.9 16.1 63 4.5 SE 24 39 13 21 1011.8 - 0.2
27/03:30am 27.2 27.6 16.4 51 6.8 ESE 9 11 5 6 1011.7 - 0.2
27/03:00am 26.8 28.0 17.4 56 6.0 SSE 7 11 4 6 1011.4 1009.5 0.2
27/02:30am 27.0 28.5 18.0 58 5.8 E 7 9 4 5 1011.3 - 0.2
27/02:00am 26.9 28.2 17.5 56 6.0 E 7 9 4 5 1011.4 - 0.2
27/01:30am 26.3 26.8 17.5 58 5.6 E 11 15 6 8 1011.6 - 0.2
27/01:00am 27.0 26.9 16.1 51 6.8 SSW 11 20 6 11 1012.2 - 0.2
27/12:30am 30.5 29.2 11.3 30 11.3 N 9 22 5 12 1012.4 - 0.0
27/12:00am 30.6 27.2 10.5 29 11.7 N 19 24 10 13 1011.6 1009.7 0.0
 
Date/Time
CST
Temp
°C
App
Temp
°C
Dew
Point
°C
Rel
Hum
%
Delta-T
°C
Wind Press
QNH
hPa
Press
MSL
hPa
Rain since
9am
mm
Dir  Spd
km/h
Gust
km/h
Spd
kts
Gust
kts
26/11:30pm 29.8 27.7 11.2 31 10.9 N 13 17 7 9 1011.7 - 0.0

Other Formats:

Comma delimited format used in spreadsheet applications
http://www.bom.gov.au/fwo/IDD60801/IDD60801.94238.axf

JavaScript Object Notation format (JSON) in row-major order
http://www.bom.gov.au/fwo/IDD60801/IDD60801.94238.json